createdAt,value
2018-09-18T00:00:17.120Z,12.02
2018-09-18T00:01:17.170Z,11.99
2018-09-18T00:02:16.438Z,11.93
2018-09-18T00:03:16.716Z,11.93
2018-09-18T00:04:16.985Z,11.92
2018-09-18T00:05:16.629Z,11.86
2018-09-18T00:06:16.897Z,11.89
2018-09-18T00:07:17.167Z,11.93
2018-09-18T00:08:16.441Z,12.06
2018-09-18T00:09:16.712Z,12.09
2018-09-18T00:10:16.393Z,12.05
2018-09-18T00:11:16.438Z,12.02
2018-09-18T00:12:16.723Z,11.95
2018-09-18T00:13:16.990Z,11.86
2018-09-18T00:14:16.263Z,11.86
2018-09-18T00:15:16.533Z,11.85
2018-09-18T00:16:16.800Z,11.84
2018-09-18T00:17:17.061Z,11.84
2018-09-18T00:18:16.329Z,11.95
2018-09-18T00:19:16.611Z,12.01
2018-09-18T00:20:16.903Z,12.05
2018-09-18T00:21:16.935Z,12.03
2018-09-18T00:22:17.215Z,12.05
2018-09-18T00:23:16.486Z,12.08
2018-09-18T00:24:16.761Z,12.08
2018-09-18T00:25:17.030Z,12.08
2018-09-18T00:26:16.307Z,12.13
2018-09-18T00:27:16.574Z,12.12
2018-09-18T00:28:16.846Z,12.15
2018-09-18T00:29:17.138Z,12.16
2018-09-18T00:30:16.427Z,12.03
2018-09-18T00:31:16.459Z,11.99
2018-09-18T00:32:16.731Z,11.99
2018-09-18T00:33:16.994Z,11.98
2018-09-18T00:34:16.263Z,12.01
2018-09-18T00:35:16.531Z,11.98
2018-09-18T00:36:16.793Z,11.95
2018-09-18T00:37:17.069Z,12.01
2018-09-18T00:38:16.338Z,11.99
2018-09-18T00:39:16.607Z,11.96
2018-09-18T00:40:16.883Z,11.89
2018-09-18T00:41:16.934Z,11.85
2018-09-18T00:42:16.205Z,11.78
2018-09-18T00:43:16.480Z,11.78
2018-09-18T00:44:16.753Z,11.77
2018-09-18T00:45:17.031Z,11.71
2018-09-18T00:46:16.493Z,11.70
2018-09-18T00:47:16.768Z,11.68
2018-09-18T00:48:17.044Z,11.77
2018-09-18T00:49:16.320Z,11.75
2018-09-18T00:50:16.844Z,11.72
2018-09-18T00:51:16.640Z,11.65
2018-09-18T00:52:16.906Z,11.61
2018-09-18T00:53:17.183Z,11.57
2018-09-18T00:54:16.476Z,11.57
2018-09-18T00:55:16.747Z,11.51
2018-09-18T00:56:17.026Z,11.49
2018-09-18T00:57:16.299Z,11.46
2018-09-18T00:58:16.581Z,11.44
2018-09-18T00:59:16.858Z,11.43
2018-09-18T01:00:17.172Z,11.43
2018-09-18T01:01:17.193Z,11.43
2018-09-18T01:02:16.456Z,11.37
2018-09-18T01:03:16.738Z,11.34
2018-09-18T01:04:17.003Z,11.30
2018-09-18T01:05:16.281Z,11.26
2018-09-18T01:06:16.574Z,11.26
2018-09-18T01:07:16.838Z,11.19
2018-09-18T01:08:17.115Z,11.16
2018-09-18T01:09:16.380Z,11.16
2018-09-18T01:10:16.655Z,11.13
2018-09-18T01:11:16.688Z,11.10
2018-09-18T01:12:16.954Z,11.09
2018-09-18T01:13:16.222Z,11.03
2018-09-18T01:14:16.482Z,11.00
2018-09-18T01:15:16.748Z,11.00
2018-09-18T01:16:17.026Z,11.00
2018-09-18T01:17:16.950Z,10.99
2018-09-18T01:18:16.225Z,10.99
2018-09-18T01:19:16.498Z,10.99
2018-09-18T01:20:16.783Z,11.03
2018-09-18T01:21:16.820Z,11.02
2018-09-18T01:22:17.102Z,11.03
2018-09-18T01:23:16.371Z,10.98
2018-09-18T01:24:16.638Z,10.95
2018-09-18T01:25:16.918Z,10.98
2018-09-18T01:26:17.461Z,10.96
2018-09-18T01:27:16.728Z,10.94
2018-09-18T01:28:16.993Z,10.89
2018-09-18T01:29:16.254Z,10.84
2018-09-18T01:30:16.545Z,10.82
2018-09-18T01:31:16.579Z,10.79
2018-09-18T01:32:16.850Z,10.84
2018-09-18T01:33:17.114Z,10.85
2018-09-18T01:34:16.375Z,10.92
2018-09-18T01:35:16.657Z,10.95
2018-09-18T01:36:16.928Z,10.89
2018-09-18T01:37:17.198Z,10.87
2018-09-18T01:38:16.457Z,10.85
2018-09-18T01:39:16.726Z,10.85
2018-09-18T01:40:17.016Z,10.94
2018-09-18T01:41:17.398Z,10.98
2018-09-18T01:42:16.674Z,10.99
2018-09-18T01:43:16.978Z,10.99
2018-09-18T01:44:16.256Z,10.95
2018-09-18T01:45:16.527Z,10.91
2018-09-18T01:46:16.797Z,10.85
2018-09-18T01:47:17.074Z,10.85
2018-09-18T01:48:16.353Z,10.82
2018-09-18T01:49:16.620Z,10.81
2018-09-18T01:50:16.895Z,10.84
2018-09-18T01:51:16.944Z,10.95
2018-09-18T01:52:16.217Z,10.98
2018-09-18T01:53:16.492Z,10.88
2018-09-18T01:54:16.756Z,10.89
2018-09-18T01:55:17.028Z,10.79
2018-09-18T01:56:16.304Z,10.81
2018-09-18T01:57:16.581Z,10.91
2018-09-18T01:58:16.839Z,10.96
2018-09-18T01:59:17.113Z,10.99
2018-09-18T02:00:16.406Z,10.99
2018-09-18T02:01:16.453Z,10.96
2018-09-18T02:02:16.719Z,10.94
2018-09-18T02:03:16.990Z,10.88
2018-09-18T02:04:16.262Z,10.88
2018-09-18T02:05:16.552Z,10.88
2018-09-18T02:06:16.824Z,10.87
2018-09-18T02:07:15.518Z,10.88
2018-09-18T02:08:16.792Z,10.84
2018-09-18T02:09:17.060Z,10.84
2018-09-18T02:10:16.337Z,10.82
2018-09-18T02:11:16.390Z,10.79
2018-09-18T02:12:16.652Z,10.78
2018-09-18T02:13:16.916Z,10.77
2018-09-18T02:14:17.183Z,10.74
2018-09-18T02:15:16.464Z,10.70
2018-09-18T02:16:16.734Z,10.65
2018-09-18T02:17:17.001Z,10.65
2018-09-18T02:18:16.270Z,10.57
2018-09-18T02:19:16.546Z,10.50
2018-09-18T02:20:16.829Z,10.47
2018-09-18T02:21:16.875Z,10.45
2018-09-18T02:22:17.139Z,10.36
2018-09-18T02:23:16.405Z,10.37
2018-09-18T02:24:16.681Z,10.37
2018-09-18T02:25:16.952Z,10.33
2018-09-18T02:26:16.215Z,10.30
2018-09-18T02:27:16.478Z,10.31
2018-09-18T02:28:16.743Z,10.26
2018-09-18T02:29:17.015Z,10.26
2018-09-18T02:30:16.323Z,10.24
2018-09-18T02:31:16.333Z,10.26
2018-09-18T02:32:16.600Z,10.23
2018-09-18T02:33:16.859Z,10.20
2018-09-18T02:34:17.136Z,10.23
2018-09-18T02:35:16.408Z,10.21
2018-09-18T02:36:16.679Z,10.26
2018-09-18T02:37:16.949Z,10.23
2018-09-18T02:38:16.212Z,10.21
2018-09-18T02:39:16.483Z,10.19
2018-09-18T02:40:16.775Z,10.19
2018-09-18T02:41:16.827Z,10.21
2018-09-18T02:42:17.100Z,10.20
2018-09-18T02:43:16.368Z,10.21
2018-09-18T02:44:16.656Z,10.17
2018-09-18T02:45:16.946Z,10.13
2018-09-18T02:46:16.214Z,10.13
2018-09-18T02:47:16.498Z,10.08
2018-09-18T02:48:16.768Z,10.08
2018-09-18T02:49:17.040Z,10.12
2018-09-18T02:50:16.327Z,10.16
2018-09-18T02:51:16.392Z,10.20
2018-09-18T02:52:16.663Z,10.21
2018-09-18T02:53:16.938Z,10.14
2018-09-18T02:54:17.212Z,10.14
2018-09-18T02:55:16.492Z,10.13
2018-09-18T02:56:16.759Z,10.12
2018-09-18T02:57:17.026Z,10.10
2018-09-18T02:58:16.295Z,10.09
2018-09-18T02:59:16.576Z,10.09
2018-09-18T03:00:16.867Z,10.10
2018-09-18T03:01:16.903Z,10.09
2018-09-18T03:02:17.444Z,10.05
2018-09-18T03:03:16.713Z,10.05
2018-09-18T03:04:16.979Z,10.03
2018-09-18T03:05:16.253Z,10.02
2018-09-18T03:06:16.521Z,10.01
2018-09-18T03:07:16.784Z,10.01
2018-09-18T03:08:17.044Z,9.99
2018-09-18T03:09:16.321Z,9.98
2018-09-18T03:10:16.598Z,9.96
2018-09-18T03:11:16.657Z,9.93
2018-09-18T03:12:17.615Z,9.89
2018-09-18T03:13:16.898Z,9.89
2018-09-18T03:14:17.171Z,9.86
2018-09-18T03:15:16.451Z,9.85
2018-09-18T03:16:16.727Z,9.84
2018-09-18T03:17:16.987Z,9.82
2018-09-18T03:18:16.251Z,9.81
2018-09-18T03:19:16.519Z,9.78
2018-09-18T03:20:16.795Z,9.76
2018-09-18T03:21:16.847Z,9.74
2018-09-18T03:22:17.129Z,9.80
2018-09-18T03:23:16.403Z,9.80
2018-09-18T03:24:16.669Z,9.81
2018-09-18T03:25:16.939Z,9.76
2018-09-18T03:26:16.220Z,9.76
2018-09-18T03:27:16.500Z,9.78
2018-09-18T03:28:17.142Z,9.78
2018-09-18T03:29:16.420Z,9.76
2018-09-18T03:30:16.721Z,9.76
2018-09-18T03:31:16.743Z,9.71
2018-09-18T03:32:17.027Z,9.71
2018-09-18T03:33:16.322Z,9.69
2018-09-18T03:34:16.605Z,9.69
2018-09-18T03:35:16.906Z,9.65
2018-09-18T03:36:17.172Z,9.65
2018-09-18T03:37:16.450Z,9.62
2018-09-18T03:38:16.733Z,9.62
2018-09-18T03:39:17.017Z,9.62
2018-09-18T03:40:16.310Z,9.66
2018-09-18T03:41:16.341Z,9.69
2018-09-18T03:42:16.610Z,9.64
2018-09-18T03:43:16.880Z,9.62
2018-09-18T03:44:17.144Z,9.64
2018-09-18T03:45:16.411Z,9.61
2018-09-18T03:46:16.683Z,9.64
2018-09-18T03:47:16.958Z,9.61
2018-09-18T03:48:16.222Z,9.62
2018-09-18T03:49:16.510Z,9.59
2018-09-18T03:50:16.785Z,9.61
2018-09-18T03:51:16.806Z,9.61
2018-09-18T03:52:17.099Z,9.59
2018-09-18T03:53:16.369Z,9.66
2018-09-18T03:54:16.641Z,9.65
2018-09-18T03:55:16.922Z,9.69
2018-09-18T03:56:17.189Z,9.72
2018-09-18T03:57:16.459Z,9.68
2018-09-18T03:58:16.728Z,9.68
2018-09-18T03:59:16.997Z,9.68
2018-09-18T04:00:16.286Z,9.68
2018-09-18T04:01:16.325Z,9.74
2018-09-18T04:02:16.601Z,9.74
2018-09-18T04:03:16.865Z,9.72
2018-09-18T04:04:17.142Z,9.75
2018-09-18T04:05:16.427Z,9.71
2018-09-18T04:06:16.695Z,9.71
2018-09-18T04:07:16.958Z,9.68
2018-09-18T04:08:16.231Z,9.72
2018-09-18T04:09:16.508Z,9.69
2018-09-18T04:10:16.777Z,9.69
2018-09-18T04:11:16.828Z,9.69
2018-09-18T04:12:17.099Z,9.71
2018-09-18T04:13:16.372Z,9.69
2018-09-18T04:14:16.643Z,9.71
2018-09-18T04:15:16.909Z,9.66
2018-09-18T04:16:17.459Z,9.66
2018-09-18T04:17:16.734Z,9.65
2018-09-18T04:18:17.025Z,9.65
2018-09-18T04:19:16.297Z,9.62
2018-09-18T04:20:16.581Z,9.62
2018-09-18T04:21:16.626Z,9.61
2018-09-18T04:22:16.907Z,9.58
2018-09-18T04:23:17.174Z,9.58
2018-09-18T04:24:16.457Z,9.59
2018-09-18T04:25:16.742Z,9.62
2018-09-18T04:26:17.007Z,9.62
2018-09-18T04:27:16.817Z,9.65
2018-09-18T04:28:17.084Z,9.64
2018-09-18T04:29:16.365Z,9.65
2018-09-18T04:30:16.658Z,9.66
2018-09-18T04:31:16.712Z,9.62
2018-09-18T04:32:16.980Z,9.62
2018-09-18T04:33:16.258Z,9.64
2018-09-18T04:34:16.537Z,9.61
2018-09-18T04:35:16.833Z,9.58
2018-09-18T04:36:17.354Z,9.58
2018-09-18T04:37:16.625Z,9.55
2018-09-18T04:38:16.903Z,9.57
2018-09-18T04:39:17.182Z,9.54
2018-09-18T04:40:16.468Z,9.50
2018-09-18T04:41:16.524Z,9.50
2018-09-18T04:42:16.803Z,9.44
2018-09-18T04:43:17.069Z,9.44
2018-09-18T04:44:16.333Z,9.45
2018-09-18T04:45:16.625Z,9.43
2018-09-18T04:46:16.885Z,9.41
2018-09-18T04:47:17.172Z,9.44
2018-09-18T04:48:16.433Z,9.41
2018-09-18T04:49:16.705Z,9.43
2018-09-18T04:50:16.991Z,9.41
2018-09-18T04:51:17.027Z,9.47
2018-09-18T04:52:16.294Z,9.53
2018-09-18T04:53:16.566Z,9.53
2018-09-18T04:54:16.842Z,9.48
2018-09-18T04:55:17.114Z,9.50
2018-09-18T04:56:16.383Z,9.47
2018-09-18T04:57:16.641Z,9.47
2018-09-18T04:58:16.906Z,9.45
2018-09-18T04:59:17.184Z,9.45
2018-09-18T05:00:16.495Z,9.45
2018-09-18T05:01:16.525Z,9.43
2018-09-18T05:02:16.785Z,9.45
2018-09-18T05:03:17.057Z,9.45
2018-09-18T05:04:16.324Z,9.45
2018-09-18T05:05:16.745Z,9.44
2018-09-18T05:06:17.024Z,9.47
2018-09-18T05:07:16.301Z,9.44
2018-09-18T05:08:16.618Z,9.44
2018-09-18T05:09:16.907Z,9.48
2018-09-18T05:10:16.285Z,9.50
2018-09-18T05:11:16.330Z,9.50
2018-09-18T05:12:16.606Z,9.53
2018-09-18T05:13:16.866Z,9.55
2018-09-18T05:14:17.136Z,9.55
2018-09-18T05:15:16.428Z,9.57
2018-09-18T05:16:16.696Z,9.58
2018-09-18T05:17:16.966Z,9.59
2018-09-18T05:18:16.232Z,9.58
2018-09-18T05:19:16.498Z,9.57
2018-09-18T05:20:16.778Z,9.62
2018-09-18T05:21:16.813Z,9.64
2018-09-18T05:22:17.081Z,9.64
2018-09-18T05:23:16.357Z,9.75
2018-09-18T05:24:16.626Z,9.74
2018-09-18T05:25:16.913Z,9.82
2018-09-18T05:26:17.516Z,9.84
2018-09-18T05:27:16.789Z,9.82
2018-09-18T05:28:17.066Z,9.81
2018-09-18T05:29:16.335Z,9.84
2018-09-18T05:30:16.613Z,9.81
2018-09-18T05:31:16.644Z,9.88
2018-09-18T05:32:16.921Z,9.89
2018-09-18T05:33:17.191Z,9.86
2018-09-18T05:34:16.473Z,9.85
2018-09-18T05:35:16.766Z,9.86
2018-09-18T05:36:17.058Z,9.88
2018-09-18T05:37:16.339Z,9.88
2018-09-18T05:38:16.602Z,9.89
2018-09-18T05:39:16.866Z,9.91
2018-09-18T05:40:17.143Z,9.93
2018-09-18T05:41:17.198Z,9.93
2018-09-18T05:42:16.473Z,9.92
2018-09-18T05:43:16.740Z,9.93
2018-09-18T05:44:17.008Z,9.95
2018-09-18T05:45:16.280Z,9.99
2018-09-18T05:46:16.561Z,10.01
2018-09-18T05:47:16.828Z,10.03
2018-09-18T05:48:17.191Z,10.09
2018-09-18T05:49:16.717Z,10.09
2018-09-18T05:50:17.012Z,10.16
2018-09-18T05:51:17.034Z,10.14
2018-09-18T05:52:16.306Z,10.17
2018-09-18T05:53:16.575Z,10.20
2018-09-18T05:54:16.836Z,10.19
2018-09-18T05:55:17.112Z,10.21
2018-09-18T05:56:16.377Z,10.24
2018-09-18T05:57:16.637Z,10.30
2018-09-18T05:58:16.903Z,10.30
2018-09-18T05:59:17.171Z,10.34
2018-09-18T06:00:16.442Z,10.40
2018-09-18T06:01:16.506Z,10.50
2018-09-18T06:02:16.893Z,10.45
2018-09-18T06:03:16.336Z,10.48
2018-09-18T06:04:16.621Z,10.54
2018-09-18T06:05:16.898Z,10.56
2018-09-18T06:06:17.162Z,10.60
2018-09-18T06:07:16.426Z,10.61
2018-09-18T06:08:16.698Z,10.65
2018-09-18T06:09:16.980Z,10.68
2018-09-18T06:10:16.255Z,10.70
2018-09-18T06:11:16.321Z,10.81
2018-09-18T06:12:16.589Z,10.81
2018-09-18T06:13:16.853Z,10.88
2018-09-18T06:14:17.125Z,10.91
2018-09-18T06:15:16.404Z,10.95
2018-09-18T06:16:16.670Z,10.99
2018-09-18T06:17:16.946Z,11.02
2018-09-18T06:18:16.220Z,11.12
2018-09-18T06:19:16.587Z,11.13
2018-09-18T06:20:17.135Z,11.22
2018-09-18T06:21:16.326Z,11.26
2018-09-18T06:22:16.587Z,11.29
2018-09-18T06:23:16.867Z,11.30
2018-09-18T06:24:17.155Z,11.31
2018-09-18T06:25:16.426Z,11.37
2018-09-18T06:26:16.794Z,11.42
2018-09-18T06:27:16.223Z,11.47
2018-09-18T06:28:16.492Z,11.53
2018-09-18T06:29:16.772Z,11.55
2018-09-18T06:30:17.062Z,11.60
2018-09-18T06:31:17.087Z,11.67
2018-09-18T06:32:16.355Z,11.81
2018-09-18T06:33:16.620Z,11.86
2018-09-18T06:34:17.063Z,11.92
2018-09-18T06:35:16.335Z,11.96
2018-09-18T06:36:16.597Z,12.02
2018-09-18T06:37:16.861Z,12.08
2018-09-18T06:38:17.127Z,12.12
2018-09-18T06:39:16.403Z,12.16
2018-09-18T06:40:16.687Z,12.20
2018-09-18T06:41:16.735Z,12.29
2018-09-18T06:42:17.067Z,12.33
2018-09-18T06:43:16.495Z,12.40
2018-09-18T06:44:16.754Z,12.47
2018-09-18T06:45:17.032Z,12.49
2018-09-18T06:46:16.291Z,12.51
2018-09-18T06:47:16.565Z,12.67
2018-09-18T06:48:16.827Z,12.68
2018-09-18T06:49:17.104Z,12.77
2018-09-18T06:50:16.381Z,12.89
2018-09-18T06:51:16.411Z,12.92
2018-09-18T06:52:16.677Z,12.91
2018-09-18T06:53:16.950Z,12.91
2018-09-18T06:54:16.222Z,13.02
2018-09-18T06:55:16.500Z,13.04
2018-09-18T06:56:16.775Z,13.18
2018-09-18T06:57:17.052Z,13.26
2018-09-18T06:58:16.324Z,13.49
2018-09-18T06:59:16.601Z,13.54
2018-09-18T07:00:16.885Z,13.57
2018-09-18T07:01:16.933Z,13.58
2018-09-18T07:02:17.201Z,13.64
2018-09-18T07:03:16.466Z,13.64
2018-09-18T07:04:16.742Z,13.63
2018-09-18T07:05:17.006Z,13.68
2018-09-18T07:06:16.270Z,13.81
2018-09-18T07:07:16.550Z,13.88
2018-09-18T07:08:16.815Z,13.88
2018-09-18T07:09:17.581Z,14.15
2018-09-18T07:10:16.863Z,14.12
2018-09-18T07:11:16.911Z,14.22
2018-09-18T07:12:17.175Z,14.39
2018-09-18T07:13:16.442Z,14.39
2018-09-18T07:14:16.712Z,14.53
2018-09-18T07:15:16.991Z,14.66
2018-09-18T07:16:16.268Z,14.84
2018-09-18T07:17:16.536Z,14.84
2018-09-18T07:18:16.807Z,14.78
2018-09-18T07:19:17.074Z,14.95
2018-09-18T07:20:16.356Z,15.04
2018-09-18T07:21:16.427Z,15.21
2018-09-18T07:22:16.699Z,15.29
2018-09-18T07:23:17.010Z,15.26
2018-09-18T07:24:16.282Z,15.38
2018-09-18T07:25:16.555Z,15.43
2018-09-18T07:26:16.824Z,15.64
2018-09-18T07:27:17.089Z,15.70
2018-09-18T07:28:16.366Z,15.74
2018-09-18T07:29:16.653Z,15.94
2018-09-18T07:30:16.995Z,15.95
2018-09-18T07:31:17.039Z,15.91
2018-09-18T07:32:16.319Z,15.92
2018-09-18T07:33:16.606Z,16.08
2018-09-18T07:34:16.922Z,16.05
2018-09-18T07:35:17.192Z,15.95
2018-09-18T07:36:16.488Z,15.98
2018-09-18T07:37:16.757Z,16.28
2018-09-18T07:38:17.024Z,16.25
2018-09-18T07:39:16.296Z,16.25
2018-09-18T07:40:16.570Z,16.31
2018-09-18T07:41:16.622Z,16.42
2018-09-18T07:42:16.889Z,16.49
2018-09-18T07:43:17.153Z,16.70
2018-09-18T07:44:16.419Z,17.52
2018-09-18T07:45:16.691Z,17.73
2018-09-18T07:46:16.958Z,17.31
2018-09-18T07:47:16.230Z,17.46
2018-09-18T07:48:16.507Z,17.68
2018-09-18T07:49:16.780Z,17.76
2018-09-18T07:50:17.093Z,17.83
2018-09-18T07:51:17.132Z,17.83
2018-09-18T07:52:16.454Z,18.07
2018-09-18T07:53:16.915Z,17.86
2018-09-18T07:54:17.178Z,17.83
2018-09-18T07:55:16.458Z,18.10
2018-09-18T07:56:16.738Z,18.28
2018-09-18T07:57:17.012Z,18.67
2018-09-18T07:58:16.278Z,18.65
2018-09-18T07:59:16.541Z,18.58
2018-09-18T08:00:16.820Z,18.60
2018-09-18T08:01:16.872Z,18.38
2018-09-18T08:02:17.141Z,18.51
2018-09-18T08:03:16.497Z,18.80
2018-09-18T08:04:17.000Z,18.67
2018-09-18T08:05:16.272Z,18.86
2018-09-18T08:06:16.545Z,18.95
2018-09-18T08:07:16.812Z,19.21
2018-09-18T08:08:17.087Z,19.24
2018-09-18T08:09:16.356Z,19.00
2018-09-18T08:10:16.652Z,18.83
2018-09-18T08:11:16.678Z,19.28
2018-09-18T08:12:16.939Z,18.97
2018-09-18T08:13:16.206Z,19.21
2018-09-18T08:14:16.499Z,19.07
2018-09-18T08:15:16.762Z,19.05
2018-09-18T08:16:17.041Z,19.13
2018-09-18T08:17:16.343Z,19.28
2018-09-18T08:18:16.649Z,19.21
2018-09-18T08:19:17.006Z,19.24
2018-09-18T08:20:16.513Z,19.28
2018-09-18T08:21:16.533Z,19.51
2018-09-18T08:22:16.810Z,19.62
2018-09-18T08:23:17.075Z,19.55
2018-09-18T08:24:16.346Z,19.96
2018-09-18T08:25:16.728Z,20.01
2018-09-18T08:26:16.271Z,19.96
2018-09-18T08:27:16.540Z,20.21
2018-09-18T08:28:16.813Z,20.27
2018-09-18T08:29:17.081Z,20.14
2018-09-18T08:30:16.374Z,20.04
2018-09-18T08:31:16.415Z,20.21
2018-09-18T08:32:16.682Z,20.29
2018-09-18T08:33:16.947Z,20.38
2018-09-18T08:34:16.213Z,20.60
2018-09-18T08:35:16.482Z,20.49
2018-09-18T08:36:16.761Z,20.32
2018-09-18T08:37:17.025Z,20.29
2018-09-18T08:38:16.289Z,20.39
2018-09-18T08:39:16.568Z,20.45
2018-09-18T08:40:16.901Z,20.68
2018-09-18T08:41:16.964Z,20.56
2018-09-18T08:42:16.271Z,20.59
2018-09-18T08:43:16.598Z,20.89
2018-09-18T08:44:16.884Z,20.73
2018-09-18T08:45:17.196Z,21.03
2018-09-18T08:46:16.535Z,20.84
2018-09-18T08:47:16.991Z,20.87
2018-09-18T08:48:16.281Z,20.94
2018-09-18T08:49:16.566Z,21.06
2018-09-18T08:50:16.922Z,21.09
2018-09-18T08:51:16.932Z,21.40
2018-09-18T08:52:16.237Z,21.37
2018-09-18T08:53:16.556Z,21.48
2018-09-18T08:54:16.863Z,21.47
2018-09-18T08:55:17.165Z,21.18
2018-09-18T08:56:16.470Z,21.31
2018-09-18T08:57:16.807Z,21.24
2018-09-18T08:58:17.145Z,21.23
2018-09-18T08:59:16.438Z,21.44
2018-09-18T09:00:16.710Z,21.59
2018-09-18T09:01:16.821Z,21.57
2018-09-18T09:02:17.161Z,21.66
2018-09-18T09:03:16.588Z,21.70
2018-09-18T09:04:16.882Z,22.06
2018-09-18T09:05:17.167Z,22.19
2018-09-18T09:06:16.441Z,21.88
2018-09-18T09:07:16.766Z,21.91
2018-09-18T09:08:17.164Z,21.89
2018-09-18T09:09:16.982Z,22.05
2018-09-18T09:10:16.563Z,22.03
2018-09-18T09:11:16.552Z,21.82
2018-09-18T09:12:16.863Z,21.76
2018-09-18T09:13:17.149Z,21.78
2018-09-18T09:14:16.565Z,21.93
2018-09-18T09:15:16.940Z,21.97
2018-09-18T09:16:16.197Z,21.95
2018-09-18T09:17:16.519Z,22.13
2018-09-18T09:18:16.982Z,21.99
2018-09-18T09:19:16.579Z,22.06
2018-09-18T09:20:16.886Z,22.13
2018-09-18T09:21:17.015Z,22.54
2018-09-18T09:22:16.627Z,22.76
2018-09-18T09:23:17.096Z,22.65
2018-09-18T09:24:16.372Z,22.45
2018-09-18T09:25:16.651Z,22.43
2018-09-18T09:26:17.013Z,22.47
2018-09-18T09:27:16.438Z,22.61
2018-09-18T09:28:16.697Z,22.60
2018-09-18T09:29:16.970Z,22.61
2018-09-18T09:30:16.360Z,22.65
2018-09-18T09:31:16.522Z,22.64
2018-09-18T09:32:16.891Z,22.89
2018-09-18T09:33:16.501Z,23.09
2018-09-18T09:34:16.793Z,22.81
2018-09-18T09:35:17.081Z,22.82
2018-09-18T09:36:16.413Z,23.06
2018-09-18T09:37:16.804Z,22.96
2018-09-18T09:38:16.402Z,22.96
2018-09-18T09:39:16.664Z,23.13
2018-09-18T09:40:16.944Z,23.06
2018-09-18T09:41:16.963Z,23.06
2018-09-18T09:42:16.247Z,22.82
2018-09-18T09:43:16.601Z,23.13
2018-09-18T09:44:16.931Z,23.32
2018-09-18T09:45:16.212Z,23.19
2018-09-18T09:46:16.495Z,23.40
2018-09-18T09:47:16.740Z,23.58
2018-09-18T09:48:17.003Z,23.48
2018-09-18T09:49:16.251Z,23.53
2018-09-18T09:50:16.517Z,23.47
2018-09-18T09:51:16.644Z,23.47
2018-09-18T09:52:17.193Z,23.57
2018-09-18T09:53:16.461Z,23.58
2018-09-18T09:54:16.724Z,23.67
2018-09-18T09:55:17.000Z,23.69
2018-09-18T09:56:16.263Z,23.58
2018-09-18T09:57:16.534Z,23.51
2018-09-18T09:58:16.805Z,23.60
2018-09-18T09:59:17.074Z,24.01
2018-09-18T10:00:16.351Z,24.09
2018-09-18T10:01:16.428Z,24.05
2018-09-18T10:02:16.719Z,24.11
2018-09-18T10:03:16.992Z,24.11
2018-09-18T10:04:16.259Z,23.94
2018-09-18T10:05:16.528Z,24.54
2018-09-18T10:06:16.793Z,24.47
2018-09-18T10:07:17.059Z,24.51
2018-09-18T10:08:16.333Z,24.46
2018-09-18T10:09:16.603Z,24.43
2018-09-18T10:10:16.871Z,24.47
2018-09-18T10:11:16.922Z,24.33
2018-09-18T10:12:17.189Z,24.42
2018-09-18T10:13:16.454Z,24.49
2018-09-18T10:14:16.746Z,24.42
2018-09-18T10:15:17.058Z,24.40
2018-09-18T10:16:16.393Z,24.50
2018-09-18T10:17:16.659Z,24.33
2018-09-18T10:18:16.984Z,24.78
2018-09-18T10:19:16.534Z,24.64
2018-09-18T10:20:16.815Z,24.56
2018-09-18T10:21:16.846Z,24.50
2018-09-18T10:22:17.113Z,24.57
2018-09-18T10:23:16.378Z,24.50
2018-09-18T10:24:16.705Z,24.56
2018-09-18T10:25:17.014Z,24.44
2018-09-18T10:26:16.380Z,24.32
2018-09-18T10:27:17.065Z,24.67
2018-09-18T10:28:16.345Z,24.80
2018-09-18T10:29:16.607Z,24.72
2018-09-18T10:30:16.892Z,24.61
2018-09-18T10:31:16.947Z,24.63
2018-09-18T10:32:16.234Z,24.81
2018-09-18T10:33:16.531Z,24.53
2018-09-18T10:34:16.816Z,25.49
2018-09-18T10:35:17.118Z,25.49
2018-09-18T10:36:16.404Z,25.32
2018-09-18T10:37:16.681Z,25.16
2018-09-18T10:38:16.959Z,24.99
2018-09-18T10:39:16.241Z,25.30
2018-09-18T10:40:16.534Z,25.23
2018-09-18T10:41:16.707Z,25.25
2018-09-18T10:42:16.349Z,25.02
2018-09-18T10:43:16.980Z,24.89
2018-09-18T10:44:16.281Z,25.19
2018-09-18T10:45:16.556Z,25.07
2018-09-18T10:46:16.859Z,25.18
2018-09-18T10:47:17.155Z,25.19
2018-09-18T10:48:16.474Z,25.32
2018-09-18T10:49:16.802Z,25.43
2018-09-18T10:50:17.127Z,25.49
2018-09-18T10:51:17.169Z,25.52
2018-09-18T10:52:16.429Z,25.29
2018-09-18T10:53:16.787Z,25.21
2018-09-18T10:54:17.052Z,25.36
2018-09-18T10:55:16.358Z,25.46
2018-09-18T10:56:16.679Z,25.40
2018-09-18T10:57:16.960Z,25.90
2018-09-18T10:58:16.231Z,25.36
2018-09-18T10:59:16.497Z,25.43
2018-09-18T11:00:16.802Z,25.35
2018-09-18T11:01:16.817Z,25.22
2018-09-18T11:02:17.234Z,25.25
2018-09-18T11:03:16.853Z,25.21
2018-09-18T11:04:17.134Z,25.29
2018-09-18T11:05:16.413Z,25.25
2018-09-18T11:06:16.702Z,25.63
2018-09-18T11:07:16.990Z,25.90
2018-09-18T11:08:16.743Z,25.88
2018-09-18T11:09:16.317Z,26.00
2018-09-18T11:10:16.716Z,25.93
2018-09-18T11:11:16.735Z,25.74
2018-09-18T11:12:17.192Z,25.98
2018-09-18T11:13:16.619Z,25.90
2018-09-18T11:14:17.600Z,25.97
2018-09-18T11:15:17.277Z,26.18
2018-09-18T11:16:16.884Z,26.08
2018-09-18T11:17:16.437Z,25.91
2018-09-18T11:18:16.762Z,25.93
2018-09-18T11:19:17.308Z,26.21
2018-09-18T11:20:16.762Z,26.15
2018-09-18T11:21:16.806Z,26.25
2018-09-18T11:22:17.605Z,26.01
2018-09-18T11:23:16.340Z,25.93
2018-09-18T11:24:16.748Z,26.05
2018-09-18T11:25:17.240Z,26.17
2018-09-18T11:26:16.707Z,26.11
2018-09-18T11:27:17.039Z,25.95
2018-09-18T11:28:16.315Z,25.95
2018-09-18T11:29:16.593Z,26.25
2018-09-18T11:30:16.876Z,26.27
2018-09-18T11:31:16.944Z,26.29
2018-09-18T11:32:16.341Z,26.13
2018-09-18T11:33:16.607Z,26.25
2018-09-18T11:34:16.901Z,26.28
2018-09-18T11:35:17.185Z,26.35
2018-09-18T11:36:16.459Z,26.35
2018-09-18T11:37:16.732Z,26.43
2018-09-18T11:38:16.994Z,26.32
2018-09-18T11:39:16.269Z,26.35
2018-09-18T11:40:16.554Z,26.29
2018-09-18T11:41:16.612Z,26.46
2018-09-18T11:42:16.881Z,26.36
2018-09-18T11:43:17.151Z,26.27
2018-09-18T11:44:16.418Z,26.38
2018-09-18T11:45:16.678Z,26.32
2018-09-18T11:46:16.950Z,26.32
2018-09-18T11:47:16.224Z,26.63
2018-09-18T11:48:16.492Z,26.69
2018-09-18T11:49:16.785Z,26.79
2018-09-18T11:50:17.069Z,27.25
2018-09-18T11:51:17.174Z,27.01
2018-09-18T11:52:16.491Z,26.93
2018-09-18T11:53:16.866Z,26.97
2018-09-18T11:54:17.140Z,26.86
2018-09-18T11:55:16.413Z,26.87
2018-09-18T11:56:16.716Z,27.13
2018-09-18T11:57:17.052Z,27.14
2018-09-18T11:58:16.727Z,27.18
2018-09-18T11:59:17.065Z,26.91
2018-09-18T12:00:16.344Z,26.85
2018-09-18T12:01:16.405Z,27.14
2018-09-18T12:02:16.682Z,26.96
2018-09-18T12:03:17.112Z,26.89
2018-09-18T12:04:16.698Z,27.17
2018-09-18T12:05:16.973Z,27.13
2018-09-18T12:06:16.260Z,27.18
2018-09-18T12:07:16.535Z,27.08
2018-09-18T12:08:16.805Z,26.90
2018-09-18T12:09:17.167Z,26.89
2018-09-18T12:10:16.607Z,26.77
2018-09-18T12:11:16.682Z,26.64
2018-09-18T12:12:16.971Z,26.77
2018-09-18T12:13:16.261Z,26.93
2018-09-18T12:14:16.550Z,26.69
2018-09-18T12:15:16.814Z,26.67
2018-09-18T12:16:17.081Z,26.63
2018-09-18T12:17:16.372Z,26.93
2018-09-18T12:18:16.646Z,26.80
2018-09-18T12:19:16.914Z,26.85
2018-09-18T12:20:17.183Z,26.73
2018-09-18T12:21:16.235Z,26.74
2018-09-18T12:22:16.639Z,26.98
2018-09-18T12:23:16.998Z,26.97
2018-09-18T12:24:16.262Z,27.18
2018-09-18T12:25:16.552Z,27.17
2018-09-18T12:26:16.829Z,27.90
2018-09-18T12:27:17.108Z,27.62
2018-09-18T12:28:16.379Z,27.58
2018-09-18T12:29:16.670Z,27.56
2018-09-18T12:30:16.948Z,27.72
2018-09-18T12:31:17.003Z,27.55
2018-09-18T12:32:16.299Z,27.48
2018-09-18T12:33:16.563Z,27.42
2018-09-18T12:34:16.843Z,27.38
2018-09-18T12:35:17.130Z,27.72
2018-09-18T12:36:16.767Z,27.72
2018-09-18T12:37:17.034Z,27.70
2018-09-18T12:38:16.312Z,27.77
2018-09-18T12:39:16.587Z,27.48
2018-09-18T12:40:16.866Z,27.28
2018-09-18T12:41:16.923Z,27.31
2018-09-18T12:42:16.336Z,27.37
2018-09-18T12:43:16.821Z,27.28
2018-09-18T12:44:17.185Z,27.22
2018-09-18T12:45:16.460Z,27.32
2018-09-18T12:46:16.723Z,28.00
2018-09-18T12:47:16.991Z,27.90
2018-09-18T12:48:16.260Z,27.77
2018-09-18T12:49:16.625Z,27.80
2018-09-18T12:50:17.214Z,27.70
2018-09-18T12:51:17.073Z,27.65
2018-09-18T12:52:16.345Z,27.68
2018-09-18T12:53:16.629Z,27.68
2018-09-18T12:54:16.991Z,27.76
2018-09-18T12:55:16.438Z,27.99
2018-09-18T12:56:16.707Z,28.00
2018-09-18T12:57:17.172Z,27.75